Time;durP1;ratioP1;P1;durP2;ratioP2;P2;SDS_P1;SDS_P2;PMS_P1;PMS_P2;Temp;Humidity;BMP_temperature;BMP_pressure;BME280_temperature;BME280_humidity;BME280_pressure;Samples;Min_cycle;Max_cycle;Signal;HPM_P1;HPM_P2
2024/02/23 00:02:19;;;;;;;6.28;4.88;;;;;;;6.21;100.00;100229.88;5063614;28;20044;-72
2024/02/23 00:04:45;;;;;;;15.88;14.70;;;;;;;6.29;100.00;100223.88;5062444;28;20109;-73
2024/02/23 00:07:11;;;;;;;8.48;7.95;;;;;;;6.05;100.00;100215.72;5060933;28;20710;-73
2024/02/23 00:09:37;;;;;;;6.97;5.88;;;;;;;6.75;100.00;100321.00;5062443;28;20079;-73
2024/02/23 00:12:03;;;;;;;1.77;1.65;;;;;;;6.80;100.00;100305.41;5060990;28;20594;-73
2024/02/23 00:14:30;;;;;;;3.42;3.25;;;;;;;6.31;100.00;100197.88;5064079;28;20059;-72
2024/02/23 00:16:57;;;;;;;0.82;0.82;;;;;;;6.39;100.00;100171.91;5064046;28;20047;-72
2024/02/23 00:19:23;;;;;;;0.35;0.35;;;;;;;6.80;100.00;100258.47;5063158;28;20045;-74
2024/02/23 00:21:50;;;;;;;0.30;0.30;;;;;;;7.12;100.00;100310.19;5059583;28;20439;-73
2024/02/23 00:24:16;;;;;;;10.60;9.93;;;;;;;6.96;100.00;100301.28;5065817;28;20431;-74
2024/02/23 00:26:42;;;;;;;6.85;6.55;;;;;;;7.10;100.00;100304.06;5064147;28;20052;-75
2024/02/23 00:29:09;;;;;;;0.93;0.90;;;;;;;7.10;100.00;100296.25;5043862;28;20174;-72
2024/02/23 00:31:37;;;;;;;1.33;1.23;;;;;;;7.03;100.00;100279.63;5042281;28;20059;-73
2024/02/23 00:34:02;;;;;;;6.05;5.57;;;;;;;6.94;100.00;100283.00;5083230;28;20068;-74
2024/02/23 00:36:28;;;;;;;2.42;2.33;;;;;;;6.33;100.00;100186.59;5080257;28;20130;-74
2024/02/23 00:38:54;;;;;;;6.93;6.63;;;;;;;6.88;100.00;100274.22;5063618;28;20143;-74
2024/02/23 00:41:19;;;;;;;1.70;1.58;;;;;;;6.92;100.00;100299.47;5060231;28;20851;-73
2024/02/23 00:43:45;;;;;;;0.75;0.75;;;;;;;6.35;100.00;100191.84;5085295;28;20054;-73
2024/02/23 00:46:11;;;;;;;3.45;3.17;;;;;;;6.47;100.00;100217.19;5082488;28;20066;-74
2024/02/23 00:48:36;;;;;;;2.30;2.20;;;;;;;6.38;100.00;100191.88;5082709;28;20144;-73
2024/02/23 00:51:02;;;;;;;6.68;6.28;;;;;;;6.37;100.00;100179.72;5082348;28;20029;-73
2024/02/23 00:53:30;;;;;;;5.95;4.43;;;;;;;6.49;100.00;100200.72;5077791;28;20036;-73
2024/02/23 00:55:56;;;;;;;8.65;8.18;;;;;;;6.77;100.00;100268.88;5081240;28;20052;-73
2024/02/23 00:58:21;;;;;;;4.95;4.53;;;;;;;6.42;100.00;100205.84;5084444;28;20055;-72
2024/02/23 01:00:47;;;;;;;2.30;2.20;;;;;;;6.18;100.00;100172.47;5067200;28;20562;-72
2024/02/23 01:03:12;;;;;;;1.55;1.48;;;;;;;6.76;100.00;100277.53;5083018;28;20103;-73
2024/02/23 01:05:39;;;;;;;7.65;7.22;;;;;;;6.47;100.00;100240.66;5081438;28;20491;-73
2024/02/23 01:08:05;;;;;;;4.15;3.95;;;;;;;5.87;100.00;100159.00;5083695;28;20044;-72
2024/02/23 01:10:31;;;;;;;4.88;4.28;;;;;;;6.37;100.00;100267.41;5074178;28;20087;-73
2024/02/23 01:12:57;;;;;;;4.25;3.97;;;;;;;6.65;100.00;100271.28;5086825;28;20585;-73
2024/02/23 01:15:22;;;;;;;2.38;2.25;;;;;;;6.64;100.00;100275.63;5086273;28;20450;-73
2024/02/23 01:17:48;;;;;;;4.53;4.28;;;;;;;6.07;100.00;100169.75;5085790;28;20028;-73
2024/02/23 01:20:14;;;;;;;1.92;1.83;;;;;;;6.26;100.00;100251.66;5087232;28;20055;-75
2024/02/23 01:22:39;;;;;;;6.85;6.47;;;;;;;6.52;100.00;100255.50;5084144;28;20040;-73
2024/02/23 01:25:05;;;;;;;23.42;22.23;;;;;;;6.38;100.00;100244.00;5076966;28;20483;-73
2024/02/23 01:27:31;;;;;;;11.80;6.43;;;;;;;6.54;100.00;100265.94;5075797;28;23577;-75
2024/02/23 01:29:56;;;;;;;2.13;1.98;;;;;;;6.52;100.00;100242.47;5084930;28;20479;-73
2024/02/23 01:32:22;;;;;;;4.68;1.38;;;;;;;6.49;100.00;100263.28;5083343;28;20048;-73
2024/02/23 01:34:48;;;;;;;10.98;10.40;;;;;;;5.20;100.00;100151.00;5083898;28;20385;-72
2024/02/23 01:37:13;;;;;;;3.95;3.67;;;;;;;5.37;100.00;100179.91;5064786;28;20040;-73
2024/02/23 01:39:39;;;;;;;3.20;3.03;;;;;;;5.28;100.00;100141.59;5085053;28;20040;-73
2024/02/23 01:42:04;;;;;;;3.80;3.60;;;;;;;5.88;100.00;100239.75;5084652;28;20035;-73
2024/02/23 01:44:30;;;;;;;15.02;13.93;;;;;;;5.97;100.00;100240.75;5073998;28;20064;-73
2024/02/23 01:46:57;;;;;;;10.32;9.68;;;;;;;5.62;100.00;100152.53;5092418;28;20092;-73
2024/02/23 01:49:29;;;;;;;11.07;10.18;;;;;;;6.12;100.00;100270.53;5079801;28;20086;-73
2024/02/23 01:51:56;;;;;;;3.63;3.40;;;;;;;5.84;100.00;100263.09;5079148;28;20059;-72
2024/02/23 01:54:22;;;;;;;14.50;10.40;;;;;;;5.60;100.00;100268.78;5081731;28;20115;-72
2024/02/23 01:56:48;;;;;;;8.90;8.32;;;;;;;5.08;100.00;100167.25;5082669;28;20092;-72
2024/02/23 01:59:14;;;;;;;1.70;1.60;;;;;;;5.57;100.00;100274.81;5083288;28;20064;-73
2024/02/23 02:01:43;;;;;;;0.50;0.50;;;;;;;5.51;100.00;100279.88;5083796;28;20574;-73
2024/02/23 02:04:08;;;;;;;7.38;7.03;;;;;;;5.61;100.00;100247.97;5058654;28;20058;-73
2024/02/23 02:06:34;;;;;;;8.60;8.00;;;;;;;5.09;100.00;100174.19;5080756;28;20052;-74
2024/02/23 02:09:01;;;;;;;2.13;2.03;;;;;;;5.04;100.00;100157.63;5080824;28;20039;-74
2024/02/23 02:11:27;;;;;;;11.32;5.45;;;;;;;5.39;100.00;100186.00;5076414;28;20067;-73
2024/02/23 02:13:53;;;;;;;4.57;4.30;;;;;;;4.83;100.00;100137.31;5078974;28;20044;-76
2024/02/23 02:16:18;;;;;;;1.67;1.58;;;;;;;5.27;100.00;100197.06;5059572;28;20506;-74
2024/02/23 02:18:45;;;;;;;7.07;6.55;;;;;;;5.19;100.00;100203.84;5079989;28;20068;-73
2024/02/23 02:21:12;;;;;;;1.25;1.15;;;;;;;4.77;100.00;100119.88;5080336;28;20024;-75
2024/02/23 02:23:37;;;;;;;1.00;1.00;;;;;;;5.18;100.00;100171.75;5083165;28;20627;-75
2024/02/23 02:26:03;;;;;;;9.57;3.50;;;;;;;5.66;100.00;100269.72;5078407;28;20118;-75
2024/02/23 02:28:29;;;;;;;23.27;11.70;;;;;;;5.63;100.00;100263.63;5084458;28;20044;-72
2024/02/23 02:30:55;;;;;;;2.70;2.50;;;;;;;4.95;100.00;100157.47;5063082;28;20107;-75
2024/02/23 02:33:22;;;;;;;11.43;8.38;;;;;;;5.58;100.00;100258.31;5081277;28;20052;-73
2024/02/23 02:35:52;;;;;;;3.35;3.13;;;;;;;5.05;100.00;100138.56;5058406;28;20036;-73
2024/02/23 02:38:17;;;;;;;2.75;2.55;;;;;;;5.41;100.00;100241.56;5079416;28;20143;-73
2024/02/23 02:40:43;;;;;;;4.53;4.32;;;;;;;4.88;100.00;100192.00;5055848;28;20101;-72
2024/02/23 02:43:09;;;;;;;2.60;2.40;;;;;;;5.40;100.00;100231.97;5079047;28;20044;-73
2024/02/23 02:45:34;;;;;;;24.65;22.90;;;;;;;5.09;100.00;100137.78;5080749;28;20483;-71
2024/02/23 02:48:02;;;;;;;2.45;1.98;;;;;;;5.26;100.00;100151.94;5079470;28;20028;-71
2024/02/23 02:50:27;;;;;;;1.58;1.48;;;;;;;4.72;100.00;100164.81;5080838;28;20048;-72
2024/02/23 02:52:53;;;;;;;1.95;1.85;;;;;;;4.82;100.00;100261.22;5078221;28;20048;-72
2024/02/23 02:55:18;;;;;;;4.63;4.38;;;;;;;4.32;100.00;100167.47;5080074;28;20052;-71
2024/02/23 02:57:44;;;;;;;0.73;0.73;;;;;;;4.41;100.00;100260.31;5081904;28;20476;-71
2024/02/23 03:00:11;;;;;;;1.17;1.15;;;;;;;3.91;100.00;100174.34;5080429;28;20115;-75
2024/02/23 03:02:36;;;;;;;2.60;2.47;;;;;;;3.69;100.00;100162.59;5079557;28;20044;-74
2024/02/23 03:05:02;;;;;;;2.70;2.60;;;;;;;4.35;100.00;100278.34;5080695;28;20040;-74
2024/02/23 03:07:27;;;;;;;17.10;15.52;;;;;;;4.38;100.00;100268.94;5083269;28;20124;-71
2024/02/23 03:09:54;;;;;;;0.75;0.75;;;;;;;4.06;100.00;100173.84;5083641;28;20044;-72
2024/02/23 03:12:19;;;;;;;2.35;2.25;;;;;;;4.85;100.00;100281.19;5078623;28;20036;-72
2024/02/23 03:14:45;;;;;;;15.98;15.00;;;;;;;4.35;100.00;100169.25;5085089;28;20024;-71
2024/02/23 03:17:10;;;;;;;2.30;1.55;;;;;;;4.86;100.00;100283.81;5083782;28;20043;-73
2024/02/23 03:19:37;;;;;;;6.60;4.07;;;;;;;5.01;100.00;100292.78;5083359;28;20414;-74
2024/02/23 03:22:02;;;;;;;4.13;2.60;;;;;;;4.50;100.00;100200.78;5087389;28;20048;-73
2024/02/23 03:24:28;;;;;;;2.30;2.17;;;;;;;4.97;100.00;100273.66;5068838;28;20052;-72
2024/02/23 03:26:53;;;;;;;8.18;4.82;;;;;;;4.40;100.00;100178.94;5089367;28;20050;-73
2024/02/23 03:29:20;;;;;;;2.83;2.63;;;;;;;4.56;100.00;100171.44;5081580;28;20051;-75
2024/02/23 03:31:45;;;;;;;3.00;2.60;;;;;;;4.27;100.00;100189.88;5060871;28;20036;-75
2024/02/23 03:34:13;;;;;;;11.57;8.80;;;;;;;4.37;100.00;100190.97;5084455;28;20039;-72
2024/02/23 03:36:38;;;;;;;5.10;4.88;;;;;;;4.40;100.00;100219.59;5087884;28;20052;-73
2024/02/23 03:39:04;;;;;;;1.25;1.20;;;;;;;4.65;100.00;100296.34;5070658;28;20077;-72
2024/02/23 03:41:29;;;;;;;35.08;31.67;;;;;;;4.78;100.00;100290.59;5086036;28;20059;-73
2024/02/23 03:43:55;;;;;;;2.83;2.70;;;;;;;4.76;100.00;100274.09;5081992;28;20436;-73
2024/02/23 03:46:21;;;;;;;3.00;2.88;;;;;;;4.81;100.00;100232.59;5085966;28;20135;-74
2024/02/23 03:48:46;;;;;;;7.60;7.15;;;;;;;5.29;100.00;100276.00;5084173;28;20135;-74
2024/02/23 03:51:12;;;;;;;6.07;5.55;;;;;;;5.26;100.00;100286.34;5086948;28;20110;-75
2024/02/23 03:53:37;;;;;;;3.28;3.08;;;;;;;4.88;100.00;100265.66;5088405;28;20024;-74
2024/02/23 03:56:03;;;;;;;9.48;8.52;;;;;;;4.30;100.00;100157.91;5087235;28;20081;-73
2024/02/23 03:58:29;;;;;;;0.73;0.73;;;;;;;4.44;100.00;100161.66;5087307;28;20161;-73
2024/02/23 04:00:54;;;;;;;13.63;7.18;;;;;;;5.14;100.00;100258.38;5080485;28;20048;-74
2024/02/23 04:03:20;;;;;;;5.55;5.18;;;;;;;5.13;100.00;100256.63;5085833;28;20303;-70
2024/02/23 04:05:46;;;;;;;8.85;8.23;;;;;;;4.64;100.00;100175.06;5088868;28;20529;-74
2024/02/23 04:08:11;;;;;;;19.85;18.45;;;;;;;4.68;100.00;100183.78;5067780;28;20048;-73
2024/02/23 04:10:37;;;;;;;2.63;2.53;;;;;;;4.52;100.00;100167.91;5086126;28;21335;-74
2024/02/23 04:13:03;;;;;;;3.10;2.92;;;;;;;4.49;100.00;100179.94;5085462;28;20036;-74
2024/02/23 04:15:28;;;;;;;3.55;3.35;;;;;;;4.93;100.00;100256.22;5087058;28;20056;-73
2024/02/23 04:17:54;;;;;;;2.10;1.90;;;;;;;4.57;100.00;100192.25;5087620;28;20044;-75
2024/02/23 04:20:19;;;;;;;0.80;0.70;;;;;;;4.71;100.00;100220.25;5074475;28;20055;-74
2024/02/23 04:22:46;;;;;;;4.72;4.47;;;;;;;5.11;100.00;100273.94;5086489;28;20051;-73
2024/02/23 04:25:11;;;;;;;0.40;0.40;;;;;;;3.97;100.00;100058.56;5063891;28;20040;-74
2024/02/23 04:27:37;;;;;;;6.38;5.55;;;;;;;4.99;100.00;100277.16;5079024;28;20058;-73
2024/02/23 04:30:03;;;;;;;4.18;3.90;;;;;;;4.63;100.00;100191.50;5076883;28;20358;-76
2024/02/23 04:32:29;;;;;;;8.70;4.05;;;;;;;5.11;100.00;100260.06;5060223;28;20802;-73
2024/02/23 04:34:56;;;;;;;2.80;2.65;;;;;;;5.15;100.00;100267.03;5079824;28;20044;-73
2024/02/23 04:37:21;;;;;;;1.85;1.75;;;;;;;5.10;100.00;100271.28;5078471;28;20079;-73
2024/02/23 04:39:47;;;;;;;9.30;8.82;;;;;;;5.03;100.00;100265.97;5079903;28;20127;-76
2024/02/23 04:42:13;;;;;;;4.88;4.63;;;;;;;5.02;100.00;100272.00;5066312;28;20055;-73
2024/02/23 04:44:38;;;;;;;0.95;0.85;;;;;;;4.48;100.00;100160.03;5091267;28;20100;-72
2024/02/23 04:47:06;;;;;;;1.70;1.60;;;;;;;5.18;100.00;100269.72;5084195;28;20112;-73
2024/02/23 04:49:32;;;;;;;3.42;3.22;;;;;;;4.58;100.00;100165.41;5081556;28;20044;-72
2024/02/23 04:51:57;;;;;;;1.73;1.63;;;;;;;5.00;100.00;100244.22;5063539;28;20097;-73
2024/02/23 04:54:23;;;;;;;6.78;6.32;;;;;;;5.16;100.00;100251.47;5086069;28;20020;-73
2024/02/23 04:56:50;;;;;;;3.03;2.85;;;;;;;5.18;100.00;100268.00;5084939;28;20028;-73
2024/02/23 04:59:15;;;;;;;4.32;4.13;;;;;;;5.30;100.00;100280.38;5080291;28;20079;-73
2024/02/23 05:01:42;;;;;;;4.40;4.20;;;;;;;5.00;100.00;100198.28;5079489;28;20099;-74
2024/02/23 05:04:08;;;;;;;1.60;1.55;;;;;;;5.16;100.00;100255.81;5083357;28;20947;-72
2024/02/23 05:06:33;;;;;;;2.63;2.45;;;;;;;5.24;100.00;100257.72;5064258;28;20048;-74
2024/02/23 05:08:59;;;;;;;10.60;9.93;;;;;;;5.39;100.00;100272.72;5084148;28;20028;-73
2024/02/23 05:11:24;;;;;;;11.85;11.13;;;;;;;4.90;100.00;100170.38;5082117;28;20146;-73
2024/02/23 05:13:50;;;;;;;14.35;12.90;;;;;;;5.58;100.00;100273.06;5077857;28;20047;-74
2024/02/23 05:16:15;;;;;;;3.90;3.60;;;;;;;5.00;100.00;100174.03;5081763;28;20040;-74
2024/02/23 05:18:41;;;;;;;1.60;1.50;;;;;;;4.96;100.00;100164.41;5081469;28;20051;-73
2024/02/23 05:21:08;;;;;;;1.67;1.58;;;;;;;4.98;100.00;100167.91;5084902;28;20039;-73
2024/02/23 05:23:33;;;;;;;1.35;1.25;;;;;;;5.64;100.00;100270.56;5084425;28;20087;-71
2024/02/23 05:25:59;;;;;;;0.85;0.85;;;;;;;5.54;100.00;100256.50;5083420;28;20459;-72
2024/02/23 05:28:24;;;;;;;1.08;1.08;;;;;;;5.43;100.00;100225.13;5081496;28;20514;-72
2024/02/23 05:30:51;;;;;;;0.90;0.52;;;;;;;5.03;100.00;100158.47;5064738;28;20789;-73
2024/02/23 05:33:20;;;;;;;3.40;3.28;;;;;;;5.28;100.00;100198.81;5064454;28;20487;-74
2024/02/23 05:35:48;;;;;;;1.38;1.17;;;;;;;5.45;100.00;100217.31;5074122;28;20027;-72
2024/02/23 05:38:16;;;;;;;8.43;7.88;;;;;;;5.99;100.00;100292.03;5079694;28;20606;-72
2024/02/23 05:40:42;;;;;;;2.83;2.70;;;;;;;5.18;100.00;100156.16;5079194;28;20173;-72
2024/02/23 05:43:08;;;;;;;1.20;1.10;;;;;;;5.66;100.00;100251.50;5081241;28;20422;-72
2024/02/23 05:45:34;;;;;;;1.95;1.85;;;;;;;5.29;100.00;100203.16;5063083;28;20123;-72
2024/02/23 05:48:00;;;;;;;3.00;2.85;;;;;;;5.81;100.00;100266.53;5065374;28;20537;-73
2024/02/23 05:50:25;;;;;;;6.38;5.90;;;;;;;5.80;100.00;100283.00;5057799;28;20052;-72
2024/02/23 05:52:53;;;;;;;1.23;1.13;;;;;;;5.98;100.00;100300.69;5080476;28;20052;-72
2024/02/23 05:55:18;;;;;;;3.90;3.70;;;;;;;5.26;100.00;100174.50;5081392;28;20040;-72
2024/02/23 05:57:44;;;;;;;9.52;8.98;;;;;;;5.55;100.00;100207.94;5058975;28;20074;-72
2024/02/23 06:00:10;;;;;;;2.92;1.58;;;;;;;5.96;100.00;100297.19;5083723;28;20028;-73
2024/02/23 06:02:36;;;;;;;5.25;4.78;;;;;;;5.50;100.00;100198.34;5082010;28;20032;-74
2024/02/23 06:05:03;;;;;;;3.63;3.42;;;;;;;5.37;100.00;100159.09;5079258;28;20148;-74
2024/02/23 06:07:29;;;;;;;5.63;5.32;;;;;;;6.31;100.00;100310.78;5077077;28;20044;-73
2024/02/23 06:09:58;;;;;;;11.25;10.50;;;;;;;6.38;100.00;100327.41;5080357;28;20123;-72
2024/02/23 06:12:24;;;;;;;1.33;1.33;;;;;;;6.41;100.00;100316.13;5081918;28;20035;-72
2024/02/23 06:14:51;;;;;;;10.13;8.98;;;;;;;5.75;100.00;100214.34;5082065;28;20028;-73
2024/02/23 06:17:17;;;;;;;0.73;0.73;;;;;;;5.87;100.00;100260.53;5062453;28;20083;-74
2024/02/23 06:19:42;;;;;;;1.77;1.67;;;;;;;5.86;100.00;100238.84;5078715;28;20135;-75
2024/02/23 06:22:09;;;;;;;2.83;2.72;;;;;;;5.88;100.00;100216.31;5081653;28;20036;-73
2024/02/23 06:24:35;;;;;;;0.77;0.77;;;;;;;6.41;100.00;100326.56;5081525;28;20111;-72
2024/02/23 06:27:03;;;;;;;2.10;2.00;;;;;;;6.41;100.00;100316.13;5084384;28;20501;-73
2024/02/23 06:29:29;;;;;;;1.67;1.58;;;;;;;6.40;100.00;100327.44;5079232;28;20150;-74
2024/02/23 06:31:55;;;;;;;5.75;5.45;;;;;;;6.32;100.00;100275.16;5078247;28;20071;-74
2024/02/23 06:34:20;;;;;;;8.27;7.85;;;;;;;6.84;100.00;100329.81;5075292;28;20067;-74
2024/02/23 06:36:46;;;;;;;5.22;5.00;;;;;;;7.04;100.00;100303.97;5081105;28;20059;-72
2024/02/23 06:39:12;;;;;;;2.15;2.05;;;;;;;7.22;100.00;100304.19;5078847;28;20024;-72
2024/02/23 06:41:40;;;;;;;8.85;8.02;;;;;;;6.92;100.00;100239.50;5080390;28;20115;-70
2024/02/23 06:44:06;;;;;;;6.88;6.18;;;;;;;7.31;100.00;100312.13;5081728;28;20082;-73
2024/02/23 06:46:31;;;;;;;18.55;8.88;;;;;;;7.05;100.00;100238.78;5081822;28;20083;-74
2024/02/23 06:48:57;;;;;;;6.75;5.60;;;;;;;6.71;100.00;100186.22;5080725;28;20044;-74
2024/02/23 06:51:22;;;;;;;13.02;4.50;;;;;;;7.15;100.00;100302.38;5079171;28;20098;-73
2024/02/23 06:53:48;;;;;;;0.43;0.43;;;;;;;7.21;100.00;100318.13;5061546;28;20052;-74
2024/02/23 06:56:14;;;;;;;1.75;1.65;;;;;;;6.63;100.00;100226.09;5084206;28;20496;-74
2024/02/23 06:58:39;;;;;;;20.15;13.02;;;;;;;7.18;100.00;100318.94;5083924;28;20249;-74
2024/02/23 07:01:11;;;;;;;2.42;2.33;;;;;;;6.76;100.00;100208.00;5064696;28;20057;-73
2024/02/23 07:03:36;;;;;;;2.88;2.78;;;;;;;6.78;100.00;100191.50;5081283;28;20075;-74
2024/02/23 07:06:03;;;;;;;8.70;7.95;;;;;;;7.37;100.00;100256.50;5085125;28;20048;-73
2024/02/23 07:08:29;;;;;;;2.90;2.70;;;;;;;7.45;100.00;100244.44;5081406;28;20096;-75
2024/02/23 07:10:55;;;;;;;5.70;1.65;;;;;;;7.52;100.00;100225.34;5065852;28;20044;-74
2024/02/23 07:13:21;;;;;;;1.35;1.25;;;;;;;8.21;100.00;100308.66;5084830;28;20129;-74
2024/02/23 07:15:46;;;;;;;6.40;5.97;;;;;;;8.46;100.00;100307.13;5084705;28;20686;-75
2024/02/23 07:18:12;;;;;;;0.65;0.65;;;;;;;8.39;100.00;100274.81;5084932;28;20045;-73
2024/02/23 07:20:38;;;;;;;0.30;0.30;;;;;;;8.09;100.00;100197.06;5067142;28;20377;-74
2024/02/23 07:23:04;;;;;;;1.85;1.75;;;;;;;8.82;100.00;100295.13;5084889;28;20040;-73
2024/02/23 07:25:30;;;;;;;3.97;1.85;;;;;;;8.91;100.00;100305.66;5084299;28;20080;-73
2024/02/23 07:27:56;;;;;;;35.78;3.08;;;;;;;8.60;100.00;100207.84;5085036;28;20116;-75
2024/02/23 07:30:22;;;;;;;2.75;0.75;;;;;;;8.65;100.00;100188.69;5083528;28;20028;-74
2024/02/23 07:32:48;;;;;;;0.85;0.85;;;;;;;9.40;100.00;100291.88;5060633;28;20052;-74
2024/02/23 07:35:14;;;;;;;3.53;3.00;;;;;;;9.44;100.00;100291.03;5064906;28;20066;-75
2024/02/23 07:37:39;;;;;;;0.40;0.40;;;;;;;9.47;100.00;100275.31;5082221;28;20703;-74
2024/02/23 07:40:06;;;;;;;0.20;0.20;;;;;;;9.55;100.00;100291.03;5082670;28;20047;-74
2024/02/23 07:42:32;;;;;;;1.00;0.93;;;;;;;9.58;100.00;100301.53;5064001;28;20040;-74
2024/02/23 07:44:58;;;;;;;0.30;0.30;;;;;;;9.58;100.00;100262.25;5084642;28;20024;-74
2024/02/23 07:47:26;;;;;;;4.65;3.60;;;;;;;9.70;100.00;100276.22;5084537;28;20052;-73
2024/02/23 07:49:52;;;;;;;0.95;0.95;;;;;;;9.92;100.00;100290.22;5059353;28;20048;-74
2024/02/23 07:52:19;;;;;;;0.25;0.25;;;;;;;9.44;100.00;100213.31;5083407;28;20176;-73
2024/02/23 07:54:44;;;;;;;13.73;4.28;;;;;;;9.93;100.00;100301.59;5084878;28;20455;-74
2024/02/23 07:57:10;;;;;;;0.57;0.57;;;;;;;9.27;100.00;100202.84;5084642;28;20039;-75
2024/02/23 07:59:35;;;;;;;1.23;1.17;;;;;;;9.35;100.00;100187.13;5084688;28;20483;-73
2024/02/23 08:02:01;;;;;;;3.90;2.10;;;;;;;10.17;100.00;100305.97;5065830;28;20084;-73
2024/02/23 08:04:27;;;;;;;0.73;0.60;;;;;;;10.07;100.00;100298.97;5083644;28;20047;-73
2024/02/23 08:06:52;;;;;;;1.30;1.23;;;;;;;9.64;100.00;100218.56;5087307;28;20036;-76
2024/02/23 08:09:18;;;;;;;3.55;2.53;;;;;;;10.22;100.00;100306.81;5087939;28;20040;-75
2024/02/23 08:11:43;;;;;;;5.18;4.20;;;;;;;9.79;100.00;100212.47;5086629;28;20146;-73
2024/02/23 08:14:09;;;;;;;3.05;2.88;;;;;;;9.87;100.00;100205.47;5074808;28;20151;-74
2024/02/23 08:16:35;;;;;;;1.05;1.05;;;;;;;9.92;100.00;100203.72;5069529;28;20047;-74
2024/02/23 08:19:01;;;;;;;4.97;3.05;;;;;;;10.50;100.00;100307.72;5087966;28;20070;-73
2024/02/23 08:21:26;;;;;;;2.15;1.85;;;;;;;10.64;100.00;100312.94;5069604;28;20112;-74
2024/02/23 08:23:52;;;;;;;0.68;0.65;;;;;;;10.66;100.00;100311.19;5080169;28;20483;-74
2024/02/23 08:26:18;;;;;;;3.40;3.13;;;;;;;10.70;100.00;100306.78;5062239;28;20400;-73
2024/02/23 08:28:44;;;;;;;4.90;3.70;;;;;;;10.71;100.00;100308.56;5084454;28;20035;-74
2024/02/23 08:31:09;;;;;;;2.88;2.40;;;;;;;10.75;100.00;100316.41;5077958;28;20041;-74
2024/02/23 08:33:35;;;;;;;5.22;3.53;;;;;;;10.43;100.00;100202.81;5084905;28;20047;-74
2024/02/23 08:36:05;;;;;;;4.85;3.35;;;;;;;10.70;100.00;100283.16;5088072;28;20028;-73
2024/02/23 08:38:32;;;;;;;0.50;0.40;;;;;;;10.81;100.00;100259.53;5068939;28;20055;-72
2024/02/23 08:40:58;;;;;;;7.03;3.47;;;;;;;11.23;100.00;100299.63;5085968;28;20063;-73
2024/02/23 08:43:24;;;;;;;3.75;2.15;;;;;;;10.63;100.00;100200.09;5086860;28;20055;-73
2024/02/23 08:45:50;;;;;;;9.15;5.07;;;;;;;11.12;100.00;100279.53;5087170;28;20044;-73
2024/02/23 08:48:15;;;;;;;2.90;2.70;;;;;;;10.82;100.00;100195.69;5087868;28;20040;-74
2024/02/23 08:50:41;;;;;;;5.50;3.83;;;;;;;10.86;100.00;100203.50;5088283;28;20140;-74
2024/02/23 08:53:07;;;;;;;2.25;2.05;;;;;;;11.44;100.00;100275.00;5087613;28;20064;-73
2024/02/23 08:55:33;;;;;;;0.30;0.30;;;;;;;11.62;100.00;100299.41;5087450;28;20044;-74
2024/02/23 08:57:59;;;;;;;0.40;0.40;;;;;;;11.11;100.00;100195.50;5085356;28;20085;-74
2024/02/23 09:00:24;;;;;;;3.78;3.40;;;;;;;11.43;100.00;100231.22;5060721;28;20117;-74
2024/02/23 09:02:50;;;;;;;6.47;4.05;;;;;;;11.87;100.00;100298.38;5080411;28;20096;-73
2024/02/23 09:05:15;;;;;;;3.83;3.45;;;;;;;11.40;100.00;100211.06;5060069;28;20111;-74
2024/02/23 09:07:41;;;;;;;2.70;2.50;;;;;;;11.86;100.00;100286.97;5083588;28;20068;-73
2024/02/23 09:10:07;;;;;;;2.28;2.08;;;;;;;11.12;100.00;100142.09;5057193;28;20051;-74
2024/02/23 09:12:32;;;;;;;5.25;2.55;;;;;;;11.95;100.00;100254.53;5078594;28;20193;-74
2024/02/23 09:14:58;;;;;;;2.90;2.40;;;;;;;12.36;100.00;100308.53;5083177;28;20111;-75
2024/02/23 09:17:25;;;;;;;4.63;2.40;;;;;;;12.43;100.00;100313.75;5075252;28;20408;-75
2024/02/23 09:19:51;;;;;;;3.80;3.08;;;;;;;11.94;100.00;100214.22;5078512;28;20075;-75
2024/02/23 09:22:16;;;;;;;22.52;3.72;;;;;;;12.07;100.00;100217.59;5058252;28;20075;-75
2024/02/23 09:24:42;;;;;;;2.58;2.38;;;;;;;12.66;100.00;100312.63;5079597;28;20101;-74
2024/02/23 09:27:08;;;;;;;6.68;5.13;;;;;;;12.48;100.00;100262.78;5077688;28;20028;-73
2024/02/23 09:29:34;;;;;;;6.45;4.45;;;;;;;12.75;100.00;100294.09;5071422;28;20044;-75
2024/02/23 09:32:00;;;;;;;8.32;4.70;;;;;;;12.97;100.00;100313.19;5084052;28;20052;-73
2024/02/23 09:34:26;;;;;;;15.20;6.68;;;;;;;12.36;94.58;100230.47;5085195;28;20042;-73
2024/02/23 09:36:51;;;;;;;3.92;3.13;;;;;;;12.45;92.76;100211.06;5086421;28;20047;-73
2024/02/23 09:39:17;;;;;;;2.47;2.28;;;;;;;12.68;86.41;100218.72;5089184;28;20044;-73
2024/02/23 09:41:44;;;;;;;1.75;1.58;;;;;;;12.68;85.62;100213.44;5079860;28;20076;-74
2024/02/23 09:44:10;;;;;;;2.88;2.67;;;;;;;12.36;83.93;100184.84;5086544;28;20180;-74
2024/02/23 09:46:43;;;;;;;5.43;4.93;;;;;;;13.04;85.17;100280.63;5067311;28;20044;-73
2024/02/23 09:49:11;;;;;;;2.20;1.63;;;;;;;12.93;81.50;100210.53;5085551;28;20055;-73
2024/02/23 09:51:39;;;;;;;2.40;2.13;;;;;;;13.04;77.33;100201.59;5085859;28;20632;-75
2024/02/23 09:54:05;;;;;;;2.33;2.13;;;;;;;13.16;74.13;100232.16;5086620;28;20181;-73
2024/02/23 09:56:31;;;;;;;3.33;2.60;;;;;;;13.50;73.21;100289.69;5086049;28;20458;-73
2024/02/23 09:59:02;;;;;;;3.78;2.25;;;;;;;13.19;73.89;100218.94;5086252;28;20444;-74
2024/02/23 10:01:32;;;;;;;3.05;2.17;;;;;;;13.46;66.84;100274.81;5085554;28;20380;-75
2024/02/23 10:03:59;;;;;;;3.03;1.30;;;;;;;13.34;68.93;100220.50;5085516;28;20048;-73
2024/02/23 10:06:25;;;;;;;3.25;1.77;;;;;;;13.41;66.78;100216.88;5085795;28;20032;-75
2024/02/23 10:08:51;;;;;;;4.85;2.70;;;;;;;13.78;65.24;100276.13;5082628;28;20074;-73
2024/02/23 10:11:25;;;;;;;0.85;0.85;;;;;;;13.91;63.80;100277.69;5074995;28;20044;-74
2024/02/23 10:13:51;;;;;;;;;;;;;;;14.03;63.37;100293.31;5080168;28;20089;-74
2024/02/23 10:16:20;;;;;;;5.88;2.28;;;;;;;14.07;61.97;100288.81;5076919;28;19916;-75
2024/02/23 10:18:46;;;;;;;1.02;0.80;;;;;;;13.48;64.29;100234.34;5071904;28;20893;-72
2024/02/23 10:21:12;;;;;;;4.43;4.03;;;;;;;13.49;64.52;100201.84;5079892;28;20039;-74
2024/02/23 10:23:38;;;;;;;2.13;1.58;;;;;;;13.82;63.87;100252.31;5077424;28;20032;-73
2024/02/23 10:26:06;;;;;;;1.02;0.93;;;;;;;14.27;62.38;100285.88;5074800;28;20067;-72
2024/02/23 10:28:31;;;;;;;2.65;2.13;;;;;;;13.97;61.69;100268.78;5073183;28;20047;-75
2024/02/23 10:30:57;;;;;;;2.90;2.45;;;;;;;13.98;64.26;100265.22;5071233;28;20032;-76
2024/02/23 10:33:26;;;;;;;4.28;2.67;;;;;;;13.73;61.08;100176.84;5047472;28;20520;-75
2024/02/23 10:35:57;;;;;;;1.52;1.35;;;;;;;14.50;62.94;100259.06;5061487;28;20136;-74
2024/02/23 10:38:25;;;;;;;1.30;1.20;;;;;;;14.08;62.00;100175.34;5065240;28;20197;-75
2024/02/23 10:40:50;;;;;;;6.22;2.70;;;;;;;14.85;62.41;100273.41;5064186;28;20041;-74
2024/02/23 10:43:21;;;;;;;1.75;1.55;;;;;;;14.59;59.96;100250.16;5065433;28;20113;-73
2024/02/23 10:45:46;;;;;;;12.68;1.63;;;;;;;13.96;58.14;100172.94;5064344;28;20037;-74
2024/02/23 10:48:14;;;;;;;4.07;2.20;;;;;;;14.85;60.65;100247.84;5065159;28;20039;-74
2024/02/23 10:50:41;;;;;;;1.13;0.98;;;;;;;14.83;58.74;100206.50;5052942;28;20099;-74
2024/02/23 10:53:10;;;;;;;2.83;2.28;;;;;;;15.03;56.57;100134.72;5065124;28;20049;-74
2024/02/23 10:55:38;;;;;;;4.28;3.22;;;;;;;15.77;56.23;100226.44;5065033;28;20044;-74
2024/02/23 10:58:10;;;;;;;2.45;2.13;;;;;;;16.16;54.08;100213.13;5065082;28;20037;-75
2024/02/23 11:00:37;;;;;;;3.03;2.58;;;;;;;16.43;53.79;100230.91;5054585;28;20521;-74
2024/02/23 11:03:04;;;;;;;4.38;3.95;;;;;;;15.72;53.99;100184.22;5064797;28;20058;-74
2024/02/23 11:05:30;;;;;;;3.17;2.80;;;;;;;16.76;53.41;100222.94;5064880;28;20037;-74
2024/02/23 11:07:56;;;;;;;2.55;2.35;;;;;;;16.37;53.86;100233.75;5064590;28;20143;-74
2024/02/23 11:10:27;;;;;;;2.13;1.92;;;;;;;16.15;52.77;100081.66;5065362;28;20044;-74
2024/02/23 11:13:07;;;;;;;2.03;1.83;;;;;;;17.28;50.70;100224.09;5065049;28;20052;-74
2024/02/23 11:15:39;;;;;;;5.18;4.72;;;;;;;16.73;51.37;100227.47;5064360;28;20043;-74
2024/02/23 11:18:22;;;;;;;2.50;1.83;;;;;;;16.48;50.07;100090.41;5059259;28;20115;-73
2024/02/23 11:20:55;;;;;;;6.07;5.57;;;;;;;16.72;50.93;100141.81;5063690;28;20047;-73